Time;durP1;ratioP1;P1;durP2;ratioP2;P2;SDS_P1;SDS_P2;PMS_P1;PMS_P2;Temp;Humidity;BMP_temperature;BMP_pressure;BME280_temperature;BME280_humidity;BME280_pressure;Samples;Min_cycle;Max_cycle;Signal;HPM_P1;HPM_P2
2022/08/31 00:05:09;;;;;;;2.63;1.40;;;18.50;99.90;;;;;;4183267;28;20190;-91
2022/08/31 00:07:10;;;;;;;3.53;1.52;;;18.50;99.90;;;;;;4166893;28;20232;-89
2022/08/31 00:09:10;;;;;;;5.63;1.35;;;18.50;99.90;;;;;;4183009;28;20219;-89
2022/08/31 00:11:13;;;;;;;5.45;1.35;;;18.50;99.90;;;;;;4166703;28;20165;-94
2022/08/31 00:13:14;;;;;;;6.13;1.40;;;18.60;99.90;;;;;;4166869;28;20168;-91
2022/08/31 00:15:18;;;;;;;10.43;1.88;;;18.70;99.90;;;;;;4166631;28;20176;-89
2022/08/31 00:17:19;;;;;;;3.80;1.65;;;18.70;99.90;;;;;;4182975;28;20246;-93
2022/08/31 00:19:19;;;;;;;3.22;1.52;;;18.70;99.90;;;;;;4182909;28;20211;-95
2022/08/31 00:21:23;;;;;;;4.93;1.70;;;18.70;99.90;;;;;;4166603;28;20191;-93
2022/08/31 00:23:24;;;;;;;6.55;1.52;;;18.70;99.90;;;;;;4166816;28;20168;-89
2022/08/31 00:25:25;;;;;;;6.30;1.48;;;18.80;99.90;;;;;;4183213;28;20184;-91
2022/08/31 00:27:26;;;;;;;9.32;1.70;;;18.80;99.90;;;;;;4166891;28;20202;-89
2022/08/31 00:29:27;;;;;;;5.13;1.50;;;18.80;99.90;;;;;;4182334;28;20396;-89
2022/08/31 00:31:27;;;;;;;3.83;1.70;;;18.80;99.90;;;;;;4183228;28;20251;-91
2022/08/31 00:33:28;;;;;;;2.58;1.60;;;18.70;99.90;;;;;;4183053;28;20214;-90
2022/08/31 00:35:30;;;;;;;5.15;1.90;;;18.70;99.90;;;;;;4166361;28;20168;-89
2022/08/31 00:37:33;;;;;;;5.18;1.52;;;18.80;99.90;;;;;;4182903;28;20167;-89
2022/08/31 00:39:35;;;;;;;2.35;1.45;;;18.80;99.90;;;;;;4182461;28;20206;-92
2022/08/31 00:41:37;;;;;;;4.13;1.40;;;18.70;99.90;;;;;;4182928;28;20624;-89
2022/08/31 00:43:44;;;;;;;6.63;1.70;;;18.70;99.90;;;;;;4166507;28;20203;-90
2022/08/31 00:45:45;;;;;;;6.38;1.83;;;18.70;99.90;;;;;;4166226;28;20206;-93
2022/08/31 00:47:47;;;;;;;4.57;1.88;;;18.70;99.90;;;;;;4166347;28;20175;-89
2022/08/31 00:49:50;;;;;;;3.55;1.83;;;18.70;99.90;;;;;;4166399;28;20228;-90
2022/08/31 00:51:56;;;;;;;8.88;1.92;;;18.70;99.90;;;;;;4166430;28;20172;-89
2022/08/31 00:53:58;;;;;;;4.70;1.73;;;18.70;99.90;;;;;;4166259;28;20526;-88
2022/08/31 00:55:59;;;;;;;3.78;1.67;;;18.70;99.90;;;;;;4166151;28;20180;-90
2022/08/31 00:58:03;;;;;;;2.60;1.65;;;18.60;99.90;;;;;;4183320;28;20205;-90
2022/08/31 01:00:09;;;;;;;5.13;2.08;;;18.50;99.90;;;;;;4166062;28;20276;-89
2022/08/31 01:02:10;;;;;;;4.22;1.80;;;18.40;99.90;;;;;;4166217;28;20242;-89
2022/08/31 01:04:11;;;;;;;5.80;1.83;;;18.40;99.90;;;;;;4182823;28;20648;-88
2022/08/31 01:06:13;;;;;;;5.65;2.10;;;18.40;99.90;;;;;;4165900;28;20198;-89
2022/08/31 01:08:14;;;;;;;2.92;1.63;;;18.40;99.90;;;;;;4182466;28;20199;-89
2022/08/31 01:10:19;;;;;;;5.07;1.67;;;18.40;99.90;;;;;;4182623;28;20204;-89
2022/08/31 01:12:20;;;;;;;3.33;1.75;;;18.30;99.90;;;;;;4165991;28;20178;-88
2022/08/31 01:14:21;;;;;;;2.53;1.58;;;18.30;99.90;;;;;;4182541;28;20172;-88
2022/08/31 01:16:27;;;;;;;3.70;1.95;;;18.30;99.90;;;;;;4182391;28;20167;-91
2022/08/31 01:18:29;;;;;;;4.53;1.33;;;18.30;99.90;;;;;;4166161;28;20238;-89
2022/08/31 01:20:57;;;;;;;4.38;1.52;;;18.20;99.90;;;;;;4166390;28;20286;-87
2022/08/31 01:23:05;;;;;;;4.75;1.77;;;18.30;99.90;;;;;;4165850;28;20226;-90
2022/08/31 01:25:07;;;;;;;4.25;1.92;;;18.40;99.90;;;;;;4165801;28;20186;-93
2022/08/31 01:27:08;;;;;;;6.57;1.80;;;18.40;99.90;;;;;;4165846;28;20172;-94
2022/08/31 01:29:08;;;;;;;7.00;2.10;;;18.50;99.90;;;;;;4165466;28;20216;-90
2022/08/31 01:31:25;;;;;;;4.65;1.80;;;18.50;99.90;;;;;;4182030;28;20238;-88
2022/08/31 01:33:29;;;;;;;6.43;1.85;;;18.40;99.90;;;;;;4165596;28;20172;-89
2022/08/31 01:35:30;;;;;;;3.05;1.58;;;18.40;99.90;;;;;;4165519;28;20172;-89
2022/08/31 01:37:31;;;;;;;3.25;1.80;;;18.40;99.90;;;;;;4182253;28;20275;-89
2022/08/31 01:39:32;;;;;;;2.80;1.90;;;18.40;99.90;;;;;;4165897;28;20188;-89
2022/08/31 01:41:34;;;;;;;4.25;1.80;;;18.40;99.90;;;;;;4165325;28;20506;-89
2022/08/31 01:43:35;;;;;;;5.35;2.00;;;18.30;99.90;;;;;;4182220;28;20782;-89
2022/08/31 01:45:35;;;;;;;5.40;1.83;;;18.30;99.90;;;;;;4182040;28;20171;-89
2022/08/31 01:47:38;;;;;;;3.05;1.70;;;18.20;99.90;;;;;;4165521;28;20161;-89
2022/08/31 01:49:39;;;;;;;4.22;1.55;;;18.10;99.90;;;;;;4165221;28;20224;-89
2022/08/31 01:51:39;;;;;;;3.83;1.85;;;18.10;99.90;;;;;;4165515;28;20247;-89
2022/08/31 01:53:42;;;;;;;5.20;1.90;;;18.10;99.90;;;;;;4165205;28;20168;-89
2022/08/31 01:55:43;;;;;;;3.90;1.90;;;18.20;99.90;;;;;;4164835;28;20172;-89
2022/08/31 01:57:44;;;;;;;4.43;1.38;;;18.20;99.90;;;;;;4165430;28;20180;-90
2022/08/31 02:00:07;;;;;;;2.88;1.75;;;18.20;99.90;;;;;;4182026;28;20198;-92
2022/08/31 02:02:18;;;;;;;3.20;2.08;;;18.20;99.90;;;;;;4166508;28;20185;-90
2022/08/31 02:04:22;;;;;;;3.35;1.67;;;18.10;99.90;;;;;;4164895;28;20192;-91
2022/08/31 02:06:22;;;;;;;5.72;2.17;;;18.10;99.90;;;;;;4165010;28;20196;-89
2022/08/31 02:08:23;;;;;;;9.43;2.20;;;18.20;99.90;;;;;;4164914;28;20212;-90
2022/08/31 02:10:24;;;;;;;6.25;2.35;;;18.20;99.90;;;;;;4181177;28;20404;-89
2022/08/31 02:12:26;;;;;;;3.78;1.75;;;18.20;99.90;;;;;;4181409;28;20171;-90
2022/08/31 02:14:26;;;;;;;5.13;2.28;;;18.10;99.90;;;;;;4165008;28;20172;-89
2022/08/31 02:16:27;;;;;;;2.75;1.60;;;18.10;99.90;;;;;;4181226;28;20172;-89
2022/08/31 02:18:28;;;;;;;5.75;1.83;;;18.10;99.90;;;;;;4164851;28;20259;-91
2022/08/31 02:20:29;;;;;;;3.20;1.88;;;18.10;99.90;;;;;;4181014;28;20215;-94
2022/08/31 02:22:30;;;;;;;4.75;1.83;;;18.20;99.90;;;;;;4164866;28;20202;-91
2022/08/31 02:24:30;;;;;;;3.97;1.90;;;18.20;99.90;;;;;;4181196;28;20186;-89
2022/08/31 02:26:31;;;;;;;2.50;1.73;;;18.10;99.90;;;;;;4164655;28;20688;-89
2022/08/31 02:28:33;;;;;;;8.48;2.33;;;18.10;99.90;;;;;;4164803;28;20216;-89
2022/08/31 02:30:33;;;;;;;6.32;2.13;;;18.00;99.90;;;;;;4164571;28;20290;-90
2022/08/31 02:32:34;;;;;;;3.85;2.20;;;18.00;99.90;;;;;;4164652;28;20741;-89
2022/08/31 02:34:35;;;;;;;5.85;2.38;;;17.90;99.90;;;;;;4164676;28;20699;-89
2022/08/31 02:36:36;;;;;;;5.25;2.22;;;17.90;99.90;;;;;;4181023;28;20163;-89
2022/08/31 02:38:40;;;;;;;3.78;2.17;;;17.90;99.90;;;;;;4164695;28;20179;-88
2022/08/31 02:40:40;;;;;;;3.78;1.65;;;17.80;99.90;;;;;;4164716;28;20230;-89
2022/08/31 02:42:41;;;;;;;3.30;1.98;;;17.80;99.90;;;;;;4181100;28;20171;-90
2022/08/31 02:44:43;;;;;;;4.32;2.42;;;17.80;99.90;;;;;;4181039;28;20644;-89
2022/08/31 02:46:44;;;;;;;2.95;2.22;;;17.90;99.90;;;;;;4164615;28;20176;-89
2022/08/31 02:49:05;;;;;;;5.85;2.15;;;17.80;99.90;;;;;;4180737;28;20265;-94
2022/08/31 02:51:08;;;;;;;2.70;1.95;;;17.80;99.90;;;;;;4164354;28;20551;-94
2022/08/31 02:53:11;;;;;;;8.23;2.35;;;17.80;99.90;;;;;;4164307;28;20674;-93
2022/08/31 02:55:13;;;;;;;5.00;2.28;;;17.80;99.90;;;;;;4181069;28;20175;-94
2022/08/31 02:57:14;;;;;;;3.80;2.25;;;17.70;99.90;;;;;;4164537;28;20655;-90
2022/08/31 02:59:15;;;;;;;4.00;2.25;;;17.70;99.90;;;;;;4164515;28;20196;-90
2022/08/31 03:01:16;;;;;;;3.80;2.22;;;17.70;99.90;;;;;;4164526;28;20299;-90
2022/08/31 03:03:18;;;;;;;3.10;2.38;;;17.70;99.90;;;;;;4180956;28;20532;-90
2022/08/31 03:05:20;;;;;;;4.63;2.33;;;17.70;99.90;;;;;;4164527;28;20241;-88
2022/08/31 03:07:21;;;;;;;4.82;2.78;;;17.60;99.90;;;;;;4180866;28;20171;-89
2022/08/31 03:09:23;;;;;;;5.43;2.42;;;17.60;99.90;;;;;;4180536;28;20211;-89
2022/08/31 03:11:24;;;;;;;4.68;2.35;;;17.50;99.90;;;;;;4164171;28;20184;-91
2022/08/31 03:13:25;;;;;;;4.07;2.45;;;17.60;99.90;;;;;;4180723;28;20182;-88
2022/08/31 03:15:26;;;;;;;7.07;2.63;;;17.50;99.90;;;;;;4164358;28;20203;-88
2022/08/31 03:17:27;;;;;;;9.05;2.70;;;17.50;99.90;;;;;;4164394;28;20231;-88
2022/08/31 03:19:28;;;;;;;5.30;2.40;;;17.50;99.90;;;;;;4180664;28;20211;-89
2022/08/31 03:21:29;;;;;;;4.55;2.25;;;17.50;99.90;;;;;;4181303;28;20635;-94
2022/08/31 03:23:30;;;;;;;6.28;2.50;;;17.40;99.90;;;;;;4180804;28;20175;-89
2022/08/31 03:25:30;;;;;;;5.50;2.38;;;17.40;99.90;;;;;;4180769;28;20168;-89
2022/08/31 03:27:32;;;;;;;7.93;2.60;;;17.40;99.90;;;;;;4164391;28;20180;-88
2022/08/31 03:29:33;;;;;;;6.65;2.60;;;17.40;99.90;;;;;;4164045;28;20695;-92
2022/08/31 03:31:50;;;;;;;5.40;2.88;;;17.40;99.90;;;;;;4166319;28;20180;-94
2022/08/31 03:33:51;;;;;;;6.05;2.65;;;17.40;99.90;;;;;;4163987;28;20339;-93
2022/08/31 03:35:52;;;;;;;6.35;2.70;;;17.50;99.90;;;;;;4164064;28;20169;-89
2022/08/31 03:37:53;;;;;;;5.40;2.95;;;17.50;99.90;;;;;;4164111;28;20183;-89
2022/08/31 03:39:53;;;;;;;5.45;2.60;;;17.50;99.90;;;;;;4164329;28;20196;-88
2022/08/31 03:41:54;;;;;;;13.55;2.60;;;17.40;99.90;;;;;;4181293;28;20176;-89
2022/08/31 03:43:56;;;;;;;7.68;2.90;;;17.50;99.90;;;;;;4181099;28;20183;-92
2022/08/31 03:45:57;;;;;;;6.80;2.75;;;17.40;99.90;;;;;;4164102;28;20661;-94
2022/08/31 03:47:59;;;;;;;10.43;3.00;;;17.50;99.90;;;;;;4164002;28;20591;-88
2022/08/31 03:50:02;;;;;;;5.35;2.50;;;17.60;99.90;;;;;;4163954;28;20258;-88
2022/08/31 03:52:11;;;;;;;7.43;2.70;;;17.50;99.90;;;;;;4164945;28;20184;-93
2022/08/31 03:54:19;;;;;;;5.93;2.70;;;17.50;99.90;;;;;;4164806;28;20175;-89
2022/08/31 03:56:21;;;;;;;4.50;3.05;;;17.50;99.90;;;;;;4164171;28;20643;-92
2022/08/31 03:58:23;;;;;;;9.23;3.03;;;17.50;99.90;;;;;;4164146;28;20278;-88
2022/08/31 04:00:24;;;;;;;4.68;2.85;;;17.50;99.90;;;;;;4164073;28;20192;-93
2022/08/31 04:02:31;;;;;;;8.52;2.85;;;17.50;99.90;;;;;;4164874;28;20187;-89
2022/08/31 04:04:52;;;;;;;6.28;3.05;;;17.50;99.90;;;;;;4183004;28;20194;-92
2022/08/31 04:07:11;;;;;;;8.50;2.85;;;17.30;99.90;;;;;;4183840;28;20663;-89
2022/08/31 04:09:31;;;;;;;5.68;3.08;;;17.30;99.90;;;;;;4183656;28;20272;-88
2022/08/31 04:11:50;;;;;;;7.95;2.88;;;17.30;99.90;;;;;;4183968;28;20182;-93
2022/08/31 04:14:23;;;;;;;4.03;2.58;;;17.40;99.90;;;;;;4161582;28;20171;-89
2022/08/31 04:16:42;;;;;;;5.25;3.13;;;17.30;99.90;;;;;;4183702;28;20183;-89
2022/08/31 04:19:14;;;;;;;6.30;2.70;;;17.20;99.90;;;;;;4170518;28;20202;-89
2022/08/31 04:21:25;;;;;;;6.00;3.22;;;17.10;99.90;;;;;;4167726;28;20180;-89
2022/08/31 04:23:28;;;;;;;7.38;2.83;;;17.10;99.90;;;;;;4167098;28;20223;-90
2022/08/31 04:25:31;;;;;;;4.55;3.00;;;17.10;99.90;;;;;;4166969;28;20164;-90
2022/08/31 04:27:32;;;;;;;6.35;3.22;;;17.10;99.90;;;;;;4166960;28;20176;-93
2022/08/31 04:29:32;;;;;;;5.03;3.10;;;17.10;99.90;;;;;;4166665;28;20592;-89
2022/08/31 04:31:35;;;;;;;4.28;2.70;;;17.10;99.90;;;;;;4166649;28;20524;-89
2022/08/31 04:33:39;;;;;;;4.18;2.88;;;17.10;99.90;;;;;;4166596;28;20238;-89
2022/08/31 04:35:41;;;;;;;3.97;3.08;;;17.10;99.90;;;;;;4166650;28;20172;-89
2022/08/31 04:37:42;;;;;;;5.45;2.90;;;17.10;99.90;;;;;;4166335;28;20313;-89
2022/08/31 04:39:43;;;;;;;4.00;2.70;;;17.10;99.90;;;;;;4182762;28;20203;-88
2022/08/31 04:41:44;;;;;;;5.88;3.03;;;17.10;99.90;;;;;;4166138;28;20637;-88
2022/08/31 04:43:49;;;;;;;7.47;2.97;;;17.10;99.90;;;;;;4166349;28;20679;-89
2022/08/31 04:45:50;;;;;;;5.47;3.28;;;17.00;99.90;;;;;;4182739;28;20623;-89
2022/08/31 04:47:51;;;;;;;5.30;2.80;;;17.00;99.90;;;;;;4165821;28;20189;-89
2022/08/31 04:49:52;;;;;;;5.32;3.45;;;16.90;99.90;;;;;;4166142;28;20329;-88
2022/08/31 04:51:53;;;;;;;6.28;3.00;;;16.90;99.90;;;;;;4166193;28;20160;-88
2022/08/31 04:53:54;;;;;;;4.20;3.05;;;16.90;99.90;;;;;;4183099;28;20176;-89
2022/08/31 04:55:55;;;;;;;5.85;3.03;;;16.90;99.90;;;;;;4166105;28;20554;-90
2022/08/31 04:57:56;;;;;;;6.07;3.67;;;16.90;99.90;;;;;;4166078;28;20204;-93
2022/08/31 04:59:57;;;;;;;5.32;3.40;;;16.90;99.90;;;;;;4166088;28;20200;-93
2022/08/31 05:02:16;;;;;;;6.57;2.97;;;16.80;99.90;;;;;;4183653;28;20259;-89
2022/08/31 05:04:30;;;;;;;7.30;3.30;;;16.80;99.90;;;;;;4167794;28;20179;-91
2022/08/31 05:06:35;;;;;;;5.55;3.40;;;16.70;99.90;;;;;;4182368;28;20198;-89
2022/08/31 05:08:35;;;;;;;5.72;3.22;;;16.60;99.90;;;;;;4166077;28;20200;-93
2022/08/31 05:10:39;;;;;;;10.10;3.03;;;16.60;99.90;;;;;;4166156;28;20172;-89
2022/08/31 05:12:40;;;;;;;7.13;3.20;;;16.60;99.90;;;;;;4166802;28;20164;-89
2022/08/31 05:14:42;;;;;;;4.18;2.88;;;16.60;99.90;;;;;;4182969;28;20266;-88
2022/08/31 05:16:52;;;;;;;7.90;3.30;;;16.60;99.90;;;;;;4167470;28;20180;-88
2022/08/31 05:18:55;;;;;;;6.18;3.17;;;16.70;99.90;;;;;;4182331;28;20168;-89
2022/08/31 05:20:55;;;;;;;9.95;3.50;;;16.70;99.90;;;;;;4182538;28;20544;-93
2022/08/31 05:22:56;;;;;;;7.15;3.28;;;16.70;99.90;;;;;;4166144;28;20183;-89
2022/08/31 05:24:57;;;;;;;8.40;3.40;;;16.70;99.90;;;;;;4182887;28;20632;-89
2022/08/31 05:26:58;;;;;;;5.68;3.42;;;16.70;99.90;;;;;;4182453;28;20568;-89
2022/08/31 05:29:02;;;;;;;5.95;3.58;;;16.70;99.90;;;;;;4165886;28;20635;-93
2022/08/31 05:31:05;;;;;;;9.38;3.60;;;16.70;99.90;;;;;;4165798;28;20172;-93
2022/08/31 05:33:13;;;;;;;8.13;3.10;;;16.70;99.90;;;;;;4166770;28;20278;-89
2022/08/31 05:35:15;;;;;;;8.85;3.30;;;16.60;99.90;;;;;;4166412;28;20164;-90
2022/08/31 05:37:18;;;;;;;6.20;3.40;;;16.60;99.90;;;;;;4182743;28;20172;-90
2022/08/31 05:39:19;;;;;;;8.55;3.17;;;16.50;99.90;;;;;;4165872;28;20196;-89
2022/08/31 05:41:22;;;;;;;6.50;3.20;;;16.50;99.90;;;;;;4182586;28;20539;-91
2022/08/31 05:43:23;;;;;;;12.90;3.97;;;16.50;99.90;;;;;;4166561;28;20532;-89
2022/08/31 05:45:24;;;;;;;10.45;3.53;;;16.60;99.90;;;;;;4167890;28;20164;-91
2022/08/31 05:47:24;;;;;;;9.82;3.40;;;16.60;99.90;;;;;;4192758;28;20159;-90
2022/08/31 05:49:26;;;;;;;6.20;3.63;;;16.70;99.90;;;;;;4178795;28;20235;-90
2022/08/31 05:51:26;;;;;;;7.55;3.60;;;16.80;99.90;;;;;;4174432;28;20436;-90
2022/08/31 05:53:28;;;;;;;8.98;3.67;;;16.90;99.90;;;;;;4176621;28;20184;-88
2022/08/31 05:55:30;;;;;;;7.72;3.10;;;16.90;99.90;;;;;;4191622;28;20214;-89
2022/08/31 05:57:30;;;;;;;6.05;3.20;;;17.00;99.90;;;;;;4190702;28;20179;-92
2022/08/31 05:59:32;;;;;;;15.05;3.55;;;17.00;99.90;;;;;;4174866;28;20183;-90
2022/08/31 06:01:54;;;;;;;12.60;3.47;;;17.00;99.90;;;;;;4193178;28;20176;-89
2022/08/31 06:04:01;;;;;;;6.20;3.20;;;17.00;99.90;;;;;;4174810;28;20160;-90
2022/08/31 06:06:02;;;;;;;6.95;3.13;;;17.00;99.90;;;;;;4173623;28;20164;-89
2022/08/31 06:08:06;;;;;;;4.43;3.30;;;17.10;99.90;;;;;;4186636;28;20167;-92
2022/08/31 06:10:11;;;;;;;6.85;3.47;;;17.00;99.90;;;;;;4192009;28;20203;-89
2022/08/31 06:12:13;;;;;;;8.98;3.50;;;17.00;99.90;;;;;;4188919;28;20246;-89
2022/08/31 06:14:14;;;;;;;10.15;3.30;;;17.00;99.90;;;;;;4177104;28;20187;-94
2022/08/31 06:16:17;;;;;;;7.22;3.45;;;16.90;99.90;;;;;;4173784;28;20629;-89
2022/08/31 06:18:19;;;;;;;8.23;3.58;;;16.90;99.90;;;;;;4173228;28;20180;-89
2022/08/31 06:20:20;;;;;;;10.80;3.45;;;16.90;99.90;;;;;;4172532;28;20212;-91
2022/08/31 06:22:22;;;;;;;11.75;3.67;;;16.80;99.90;;;;;;4171585;28;20617;-89
2022/08/31 06:24:37;;;;;;;9.25;3.72;;;16.80;99.90;;;;;;4191668;28;20555;-91
2022/08/31 06:26:38;;;;;;;9.55;3.63;;;16.80;99.90;;;;;;4176858;28;20149;-89
2022/08/31 06:29:03;;;;;;;11.07;3.28;;;16.80;99.90;;;;;;4193294;28;20207;-93
2022/08/31 06:31:10;;;;;;;6.38;3.47;;;16.80;99.90;;;;;;4173958;28;20172;-93
2022/08/31 06:33:11;;;;;;;6.72;3.50;;;16.80;99.90;;;;;;4172359;28;20178;-89
2022/08/31 06:35:31;;;;;;;6.68;3.53;;;16.80;99.90;;;;;;4193425;28;20167;-95
2022/08/31 06:37:51;;;;;;;7.13;3.50;;;16.80;99.90;;;;;;4193061;28;20222;-92
2022/08/31 06:40:11;;;;;;;5.10;3.45;;;16.80;99.90;;;;;;4188771;28;20233;-89
2022/08/31 06:42:35;;;;;;;7.93;4.05;;;16.80;99.90;;;;;;4188301;28;20243;-89
2022/08/31 06:44:36;;;;;;;10.38;3.80;;;16.90;99.90;;;;;;4189103;28;20179;-90
2022/08/31 06:47:03;;;;;;;5.88;3.38;;;17.00;99.90;;;;;;4175340;28;20199;-92
2022/08/31 06:49:09;;;;;;;5.35;3.40;;;17.10;99.90;;;;;;4170345;28;20199;-89
2022/08/31 06:51:10;;;;;;;5.70;3.50;;;17.10;99.90;;;;;;4175842;28;20233;-90
2022/08/31 06:53:12;;;;;;;7.50;3.50;;;17.20;99.90;;;;;;4172827;28;20172;-90
2022/08/31 06:55:43;;;;;;;5.55;3.40;;;17.30;99.90;;;;;;4139991;28;20211;-87
2022/08/31 06:58:02;;;;;;;11.10;3.53;;;17.50;99.90;;;;;;4188425;28;20212;-90
2022/08/31 07:00:21;;;;;;;8.07;3.40;;;17.50;99.90;;;;;;4189109;28;20552;-90
2022/08/31 07:02:40;;;;;;;6.35;3.60;;;17.70;99.90;;;;;;4191528;28;20233;-89
2022/08/31 07:04:42;;;;;;;6.78;3.58;;;17.80;99.90;;;;;;4176876;28;20172;-92
2022/08/31 07:06:44;;;;;;;4.80;3.60;;;17.90;99.90;;;;;;4189290;28;20183;-90
2022/08/31 07:08:46;;;;;;;5.80;3.03;;;17.90;99.90;;;;;;4172459;28;20255;-90
2022/08/31 07:10:48;;;;;;;8.82;3.20;;;18.10;99.90;;;;;;4175519;28;20234;-90
2022/08/31 07:12:49;;;;;;;8.20;3.00;;;18.40;99.90;;;;;;4188859;28;20245;-89
2022/08/31 07:14:50;;;;;;;3.90;2.70;;;18.80;99.90;;;;;;4171863;28;20184;-89
2022/08/31 07:16:53;;;;;;;7.25;2.45;;;19.30;99.90;;;;;;4171195;28;20172;-90
2022/08/31 07:18:57;;;;;;;9.07;3.30;;;19.70;99.90;;;;;;4172545;28;20175;-89
2022/08/31 07:21:22;;;;;;;3.45;2.80;;;20.00;99.90;;;;;;4172295;28;20271;-91
2022/08/31 07:23:43;;;;;;;4.20;2.45;;;20.30;99.90;;;;;;4188049;28;20183;-90
2022/08/31 07:25:49;;;;;;;6.55;2.83;;;20.30;99.90;;;;;;4173939;28;20271;-87
2022/08/31 07:27:54;;;;;;;9.55;3.22;;;20.40;99.90;;;;;;4188208;28;20179;-89
2022/08/31 07:29:58;;;;;;;4.55;2.58;;;20.40;99.90;;;;;;4175964;28;20216;-94
2022/08/31 07:31:59;;;;;;;9.98;3.13;;;20.10;99.90;;;;;;4171947;28;20644;-88
2022/08/31 07:34:04;;;;;;;9.45;2.90;;;20.00;99.90;;;;;;4171909;28;20168;-90
2022/08/31 07:36:10;;;;;;;5.85;2.92;;;19.90;99.90;;;;;;4188811;28;20175;-89
2022/08/31 07:43:36;;;;;;;10.07;2.90;;;19.60;99.90;;;;;;4191968;28;20202;-89
2022/08/31 07:45:45;;;;;;;11.90;2.90;;;19.70;99.90;;;;;;4176771;28;20191;-88
2022/08/31 07:47:54;;;;;;;7.10;3.08;;;19.90;99.90;;;;;;4173388;28;20733;-87
2022/08/31 07:49:59;;;;;;;7.15;3.28;;;19.70;99.90;;;;;;4171959;28;20305;-87
2022/08/31 07:52:23;;;;;;;6.88;3.88;;;19.30;99.90;;;;;;4193571;28;20527;-94
2022/08/31 07:54:39;;;;;;;7.43;3.03;;;19.10;99.90;;;;;;4164710;28;20156;-92
2022/08/31 07:57:06;;;;;;;5.30;3.10;;;18.90;99.90;;;;;;4191626;28;20183;-94
2022/08/31 07:59:07;;;;;;;6.05;3.30;;;18.80;99.90;;;;;;4171487;28;20192;-88
2022/08/31 08:01:08;;;;;;;12.65;3.45;;;18.80;99.90;;;;;;4175820;28;20203;-90
2022/08/31 08:03:11;;;;;;;6.00;3.20;;;19.00;99.90;;;;;;4178169;28;20183;-89
2022/08/31 08:05:37;;;;;;;6.88;3.08;;;19.40;99.90;;;;;;4193182;28;20206;-95
2022/08/31 08:08:04;;;;;;;5.85;3.15;;;19.90;99.90;;;;;;4191955;28;20324;-96
2022/08/31 08:10:32;;;;;;;9.85;3.17;;;20.20;99.90;;;;;;4181826;28;20215;-87
2022/08/31 08:13:02;;;;;;;5.55;2.80;;;20.40;99.90;;;;;;4171887;28;20164;-89
2022/08/31 08:15:10;;;;;;;12.82;3.00;;;20.60;99.90;;;;;;4179639;28;20263;-88
2022/08/31 08:17:38;;;;;;;7.28;2.90;;;20.90;99.90;;;;;;4167915;28;20168;-92
2022/08/31 08:19:41;;;;;;;6.85;3.33;;;21.10;99.90;;;;;;4181556;28;20298;-92
2022/08/31 08:21:58;;;;;;;6.78;2.95;;;21.10;99.90;;;;;;4179222;28;20168;-89
2022/08/31 08:24:30;;;;;;;10.00;2.67;;;21.10;99.90;;;;;;4192050;28;20243;-93
2022/08/31 08:26:45;;;;;;;11.70;2.95;;;21.20;99.90;;;;;;4196603;28;20287;-88
2022/08/31 08:29:11;;;;;;;4.35;2.80;;;21.30;99.90;;;;;;4161156;28;20226;-93
2022/08/31 08:31:21;;;;;;;9.68;2.90;;;21.30;99.90;;;;;;4180744;28;20184;-89
2022/08/31 08:33:24;;;;;;;6.82;3.30;;;21.10;99.90;;;;;;4177507;28;20176;-90
2022/08/31 08:35:30;;;;;;;9.90;2.85;;;21.00;99.90;;;;;;4174980;28;20172;-94
2022/08/31 08:37:42;;;;;;;8.57;3.00;;;21.10;99.90;;;;;;4191453;28;20247;-89
2022/08/31 08:39:43;;;;;;;6.85;3.10;;;21.40;99.90;;;;;;4191595;28;20202;-88
2022/08/31 08:41:49;;;;;;;10.40;3.10;;;21.50;99.90;;;;;;4175921;28;20227;-88
2022/08/31 08:43:56;;;;;;;9.30;3.28;;;21.50;99.90;;;;;;4179073;28;20172;-89
2022/08/31 08:46:00;;;;;;;6.93;2.92;;;21.50;99.90;;;;;;4177445;28;20235;-87
2022/08/31 08:48:08;;;;;;;4.70;2.72;;;21.60;99.90;;;;;;4177308;28;20187;-89
2022/08/31 08:50:09;;;;;;;6.05;3.13;;;21.70;99.90;;;;;;4175270;28;20216;-89
2022/08/31 08:52:23;;;;;;;5.40;2.83;;;21.80;99.90;;;;;;4176558;28;20160;-88
2022/08/31 08:54:39;;;;;;;5.38;2.95;;;21.90;99.90;;;;;;4175435;28;20260;-88
2022/08/31 08:56:46;;;;;;;10.27;3.05;;;22.10;99.90;;;;;;4177920;28;20172;-90
2022/08/31 08:58:48;;;;;;;4.78;2.70;;;22.20;99.90;;;;;;4175752;28;20321;-89
2022/08/31 09:01:09;;;;;;;5.20;2.72;;;22.50;99.90;;;;;;4191251;28;20170;-90
2022/08/31 09:03:43;;;;;;;3.95;2.80;;;22.50;99.90;;;;;;4177121;28;20148;-91
2022/08/31 09:06:05;;;;;;;6.30;3.30;;;22.50;99.90;;;;;;4190192;28;20180;-89
2022/08/31 09:08:27;;;;;;;5.28;3.15;;;22.50;99.90;;;;;;4172993;28;20299;-91
2022/08/31 09:10:51;;;;;;;5.43;3.35;;;22.50;99.90;;;;;;4157263;28;20228;-88
2022/08/31 09:13:19;;;;;;;6.55;3.22;;;22.40;99.90;;;;;;4174013;28;20180;-93
2022/08/31 09:15:39;;;;;;;5.32;3.25;;;22.20;99.90;;;;;;4158558;28;20185;-90
2022/08/31 09:17:54;;;;;;;6.88;3.50;;;21.90;99.90;;;;;;4176656;28;20733;-89
2022/08/31 09:19:59;;;;;;;6.97;3.35;;;21.50;99.90;;;;;;4174504;28;20313;-93
2022/08/31 09:22:04;;;;;;;7.32;3.17;;;21.30;99.90;;;;;;4192339;28;20175;-93
2022/08/31 09:24:27;;;;;;;10.50;3.08;;;21.20;99.90;;;;;;4195286;28;20210;-96
2022/08/31 09:26:49;;;;;;;7.10;3.33;;;21.60;99.90;;;;;;4179015;28;20223;-90
2022/08/31 09:29:30;;;;;;;5.05;2.85;;;22.30;99.90;;;;;;4187963;28;20219;-88
2022/08/31 09:31:34;;;;;;;8.85;2.63;;;22.40;99.90;;;;;;4175976;28;20191;-94
2022/08/31 09:33:49;;;;;;;10.30;3.05;;;22.40;99.90;;;;;;4189415;28;20187;-89
2022/08/31 09:35:57;;;;;;;11.98;2.83;;;22.50;99.90;;;;;;4172757;28;20226;-89
2022/08/31 09:38:01;;;;;;;6.88;3.00;;;22.70;99.90;;;;;;4175076;28;20153;-88
2022/08/31 09:40:22;;;;;;;3.90;2.85;;;22.90;99.90;;;;;;4169363;28;20196;-89
2022/08/31 09:42:31;;;;;;;8.82;3.22;;;23.10;99.90;;;;;;4173447;28;20592;-88
2022/08/31 09:44:44;;;;;;;10.82;3.03;;;23.20;99.90;;;;;;4174957;28;20176;-89
2022/08/31 09:46:50;;;;;;;10.77;2.80;;;23.20;99.90;;;;;;4172789;28;20175;-89
2022/08/31 09:48:55;;;;;;;9.75;3.28;;;23.40;99.90;;;;;;4171339;28;20676;-90
2022/08/31 09:51:21;;;;;;;11.52;3.20;;;23.40;99.90;;;;;;4189623;28;20193;-93
2022/08/31 09:55:45;;;;;;;8.23;2.55;;;23.30;99.90;;;;;;4187937;28;20176;-90
2022/08/31 09:57:53;;;;;;;8.13;2.83;;;23.20;99.90;;;;;;4175308;28;20235;-93
2022/08/31 09:59:55;;;;;;;11.07;2.80;;;23.30;99.90;;;;;;4171286;28;20196;-94
2022/08/31 10:01:58;;;;;;;5.43;2.58;;;23.20;99.90;;;;;;4172126;28;20196;-89
2022/08/31 10:04:25;;;;;;;5.07;2.50;;;23.20;99.90;;;;;;4173324;28;20184;-90
2022/08/31 10:06:33;;;;;;;11.00;2.55;;;23.30;99.90;;;;;;4190097;28;20174;-89
2022/08/31 10:08:41;;;;;;;7.13;2.40;;;23.20;99.90;;;;;;4189569;28;20207;-88
2022/08/31 10:10:44;;;;;;;7.20;2.58;;;23.00;99.90;;;;;;4170611;28;20190;-90
2022/08/31 10:13:11;;;;;;;9.52;2.60;;;22.50;99.90;;;;;;4172626;28;20180;-89
2022/08/31 10:15:20;;;;;;;10.73;2.67;;;22.30;99.90;;;;;;4193549;28;20229;-90
2022/08/31 10:17:49;;;;;;;4.68;2.53;;;22.30;99.90;;;;;;4173226;28;20172;-94
2022/08/31 10:20:07;;;;;;;4.65;2.80;;;22.20;99.90;;;;;;4186000;28;20203;-89
2022/08/31 10:22:24;;;;;;;4.28;2.28;;;22.20;99.90;;;;;;4171091;28;20183;-89
2022/08/31 10:24:27;;;;;;;17.27;3.10;;;22.10;99.90;;;;;;4171466;28;20203;-95
2022/08/31 10:26:37;;;;;;;7.28;2.38;;;22.10;99.90;;;;;;4188613;28;20171;-91
2022/08/31 10:28:50;;;;;;;8.77;2.45;;;22.10;99.90;;;;;;4173024;28;20722;-94
2022/08/31 10:30:59;;;;;;;9.02;2.78;;;22.30;99.90;;;;;;4171040;28;20252;-91
2022/08/31 10:33:09;;;;;;;6.00;2.97;;;22.30;99.90;;;;;;4172547;28;20211;-89
2022/08/31 10:35:10;;;;;;;4.28;2.53;;;22.40;99.90;;;;;;4186662;28;20182;-89
2022/08/31 10:37:18;;;;;;;7.38;3.03;;;22.30;99.90;;;;;;4183800;28;20583;-89
2022/08/31 10:39:47;;;;;;;3.80;2.40;;;22.20;99.90;;;;;;4167408;28;20216;-90
2022/08/31 10:41:49;;;;;;;5.25;2.53;;;22.20;99.90;;;;;;4189527;28;20672;-93
2022/08/31 10:44:10;;;;;;;3.90;2.60;;;22.30;99.90;;;;;;4171623;28;20180;-90
2022/08/31 10:46:13;;;;;;;8.75;2.75;;;22.70;99.90;;;;;;4170277;28;20215;-91
2022/08/31 10:48:21;;;;;;;3.97;2.50;;;22.70;99.90;;;;;;4173119;28;20172;-95
2022/08/31 10:51:04;;;;;;;7.38;2.60;;;22.80;99.90;;;;;;4171564;28;20199;-91
2022/08/31 10:53:40;;;;;;;5.07;2.63;;;22.90;99.90;;;;;;4171745;28;20176;-92
2022/08/31 10:58:07;;;;;;;6.38;2.60;;;23.20;99.90;;;;;;4165474;28;20202;-96
2022/08/31 11:00:46;;;;;;;5.75;2.53;;;23.30;99.90;;;;;;4170385;28;20286;-94
2022/08/31 11:03:23;;;;;;;7.63;2.53;;;23.20;99.90;;;;;;4172088;28;20178;-90
2022/08/31 11:05:36;;;;;;;7.28;2.72;;;23.40;99.90;;;;;;4169903;28;20176;-92
2022/08/31 11:07:59;;;;;;;16.67;2.60;;;23.60;99.90;;;;;;4171393;28;20167;-94
2022/08/31 11:10:12;;;;;;;11.30;2.20;;;23.80;99.90;;;;;;4172063;28;20956;-90
2022/08/31 11:12:20;;;;;;;7.47;3.28;;;23.70;99.90;;;;;;4170490;28;20206;-96
2022/08/31 11:15:10;;;;;;;9.40;2.40;;;23.60;99.90;;;;;;4175955;28;20183;-91
2022/08/31 11:17:32;;;;;;;8.27;2.72;;;23.60;99.90;;;;;;4177365;28;20287;-88